Time;durP1;ratioP1;P1;durP2;ratioP2;P2;SDS_P1;SDS_P2;PMS_P1;PMS_P2;Temp;Humidity;BMP_temperature;BMP_pressure;BME280_temperature;BME280_humidity;BME280_pressure;Samples;Min_cycle;Max_cycle;Signal;HPM_P1;HPM_P2
2021/01/15 00:00:47;;;;;;;14.60;6.20;;;;;;;18.44;19.49;97862.84;5093050;28;20028;-81
2021/01/15 00:03:13;;;;;;;14.25;6.65;;;;;;;18.50;19.50;97869.63;5094385;28;20040;-83
2021/01/15 00:05:40;;;;;;;14.07;6.47;;;;;;;17.68;20.65;97882.00;5093205;28;20029;-81
2021/01/15 00:08:06;;;;;;;16.65;7.28;;;;;;;17.88;20.37;97879.59;5091716;28;20064;-81
2021/01/15 00:10:32;;;;;;;15.85;7.05;;;;;;;17.25;21.16;97872.78;5082989;28;20490;-81
2021/01/15 00:12:58;;;;;;;15.82;6.47;;;;;;;17.11;21.38;97877.50;5092732;28;20036;-81
2021/01/15 00:15:24;;;;;;;17.25;8.07;;;;;;;17.17;21.24;97884.25;5084794;28;20398;-81
2021/01/15 00:17:50;;;;;;;12.93;6.35;;;;;;;17.80;20.67;97891.91;5091870;28;20086;-81
2021/01/15 00:20:17;;;;;;;14.80;6.82;;;;;;;17.19;21.15;97884.66;5092307;28;20032;-81
2021/01/15 00:22:43;;;;;;;16.33;7.13;;;;;;;17.92;20.35;97892.28;5094185;28;20115;-81
2021/01/15 00:25:12;;;;;;;18.30;7.53;;;;;;;18.29;20.09;97896.63;5092716;28;20039;-81
2021/01/15 00:27:39;;;;;;;14.88;6.85;;;;;;;18.11;20.00;97896.66;5095406;28;20432;-81
2021/01/15 00:30:08;;;;;;;15.05;6.82;;;;;;;17.18;20.85;97903.28;5089876;28;20364;-81
2021/01/15 00:32:34;;;;;;;14.45;7.18;;;;;;;17.74;20.41;97907.38;5092883;28;20134;-81
2021/01/15 00:35:01;;;;;;;17.67;8.05;;;;;;;16.92;21.14;97914.66;5093150;28;20028;-81
2021/01/15 00:37:27;;;;;;;12.20;6.50;;;;;;;17.40;20.51;97911.66;5094586;28;20174;-81
2021/01/15 00:39:53;;;;;;;14.75;6.68;;;;;;;17.78;20.13;97916.50;5095528;28;20408;-81
2021/01/15 00:42:19;;;;;;;14.05;6.72;;;;;;;17.27;20.38;97911.22;5090651;28;20089;-81
2021/01/15 00:44:45;;;;;;;12.82;5.68;;;;;;;16.77;20.82;97915.00;5087017;28;20028;-81
2021/01/15 00:47:12;;;;;;;15.25;7.32;;;;;;;16.13;21.66;97922.91;5092562;28;20051;-81
2021/01/15 00:49:38;;;;;;;16.50;6.85;;;;;;;16.95;20.75;97916.66;5091970;28;20032;-81
2021/01/15 00:52:04;;;;;;;13.43;6.32;;;;;;;17.06;20.49;97923.03;5089142;28;20038;-81
2021/01/15 00:54:31;;;;;;;15.73;7.32;;;;;;;16.57;20.79;97920.03;5085364;28;20024;-81
2021/01/15 00:57:03;;;;;;;15.35;6.28;;;;;;;17.44;20.01;97916.03;5089148;28;20039;-81
2021/01/15 00:59:29;;;;;;;13.07;6.50;;;;;;;18.20;19.42;97915.72;5088741;28;20055;-81
2021/01/15 01:01:55;;;;;;;14.85;7.05;;;;;;;18.22;19.42;97921.66;5090412;28;20028;-81
2021/01/15 01:04:21;;;;;;;11.90;6.72;;;;;;;18.77;18.93;97925.53;5086820;28;20033;-81
2021/01/15 01:06:48;;;;;;;15.25;7.18;;;;;;;18.63;19.05;97923.59;5090455;28;20471;-81
2021/01/15 01:09:14;;;;;;;16.90;7.10;;;;;;;18.56;19.15;97936.72;5086212;28;20051;-80
2021/01/15 01:11:40;;;;;;;17.98;8.25;;;;;;;18.85;19.14;97935.47;5085814;28;20433;-81
2021/01/15 01:14:06;;;;;;;15.35;6.45;;;;;;;18.49;19.47;97931.97;5090600;28;20396;-81
2021/01/15 01:16:32;;;;;;;14.20;7.40;;;;;;;18.45;19.68;97933.97;5085159;28;20040;-81
2021/01/15 01:18:59;;;;;;;14.68;7.05;;;;;;;18.56;19.29;97936.72;5092262;28;20042;-81
2021/01/15 01:21:25;;;;;;;14.70;6.22;;;;;;;18.41;19.39;97940.69;5069866;28;20078;-80
2021/01/15 01:23:52;;;;;;;14.43;6.88;;;;;;;18.23;19.66;97943.47;5087391;28;20043;-81
2021/01/15 01:26:19;;;;;;;16.13;6.82;;;;;;;16.98;20.78;97948.38;5091035;28;20032;-80
2021/01/15 01:28:46;;;;;;;12.90;6.35;;;;;;;17.27;20.06;97945.31;5091831;28;20024;-81
2021/01/15 01:31:13;;;;;;;12.95;6.95;;;;;;;16.55;20.30;97950.94;5090130;28;20476;-81
2021/01/15 01:33:40;;;;;;;9.70;4.38;;;;;;;15.78;20.90;97958.59;5079693;28;20033;-81
2021/01/15 01:36:07;;;;;;;7.82;4.00;;;;;;;15.86;21.00;97963.84;5090985;28;20035;-81
2021/01/15 01:38:34;;;;;;;9.63;5.32;;;;;;;14.53;22.47;97968.56;5086995;28;20067;-81
2021/01/15 01:41:00;;;;;;;11.85;5.82;;;;;;;15.79;21.33;97969.31;5062741;28;650829;-81
2021/01/15 01:43:26;;;;;;;13.02;5.45;;;;;;;14.15;22.95;97971.47;5089587;28;20407;-81
2021/01/15 01:45:54;;;;;;;9.75;4.90;;;;;;;14.89;22.08;97975.38;5093553;28;20395;-81
2021/01/15 01:48:21;;;;;;;12.18;6.25;;;;;;;14.38;22.85;97969.50;5089984;28;20366;-81
2021/01/15 01:50:47;;;;;;;10.13;4.07;;;;;;;15.72;21.32;97969.25;5088177;28;20067;-81
2021/01/15 01:53:17;;;;;;;14.00;6.88;;;;;;;16.27;20.57;97953.47;5091704;28;20051;-80
2021/01/15 01:55:43;;;;;;;13.70;6.00;;;;;;;15.77;21.38;97973.63;5086944;28;20032;-81
2021/01/15 01:58:12;;;;;;;11.70;6.15;;;;;;;16.15;20.79;97969.63;5091398;28;20040;-81
2021/01/15 02:00:40;;;;;;;10.75;5.05;;;;;;;14.75;22.01;97966.88;5090574;28;20556;-80
2021/01/15 02:03:07;;;;;;;8.82;3.95;;;;;;;14.39;22.41;97973.88;5090090;28;20052;-80
2021/01/15 02:05:33;;;;;;;9.52;4.43;;;;;;;15.34;21.51;97969.59;5088665;28;20032;-81
2021/01/15 02:07:59;;;;;;;10.65;5.47;;;;;;;16.21;20.47;97974.41;5093129;28;20040;-81
2021/01/15 02:11:18;;;;;;;10.55;4.88;;;;;;;15.87;20.84;97976.47;5091931;28;20027;-81
2021/01/15 02:14:04;;;;;;;12.15;5.22;;;;;;;15.49;20.89;97973.34;5043020;28;20472;-81
2021/01/15 02:16:31;;;;;;;7.60;4.35;;;;;;;13.85;22.90;97983.22;5046541;28;20485;-81
2021/01/15 02:19:13;;;;;;;8.25;4.72;;;;;;;14.83;21.61;97976.84;5069026;28;20048;-81
2021/01/15 02:21:54;;;;;;;9.13;4.55;;;;;;;14.42;21.94;97976.66;5087199;28;20032;-81
2021/01/15 02:24:49;;;;;;;;;;;;;;;15.60;20.67;97977.81;5090353;28;20028;-80
2021/01/15 02:27:44;;;;;;;5.95;2.95;;;;;;;15.00;21.21;97988.16;5077504;28;20358;-81
2021/01/15 02:30:34;;;;;;;4.85;2.55;;;;;;;16.84;19.30;97974.06;5076543;28;20032;-81
2021/01/15 02:33:18;;;;;;;7.93;3.72;;;;;;;16.36;19.25;97976.09;5091701;28;20028;-80
2021/01/15 02:36:05;;;;;;;9.00;3.90;;;;;;;15.85;20.05;97981.59;5070226;28;20036;-81
2021/01/15 02:38:40;;;;;;;8.32;3.70;;;;;;;16.55;19.51;97977.84;5090537;28;20107;-81
2021/01/15 02:41:21;;;;;;;6.18;3.22;;;;;;;16.23;19.75;97979.56;5091030;28;20044;-81
2021/01/15 02:43:58;;;;;;;8.13;4.25;;;;;;;16.05;20.27;97979.44;5083241;28;20040;-81
2021/01/15 02:46:47;;;;;;;9.38;4.50;;;;;;;15.79;20.39;97985.91;5083384;28;20391;-80
2021/01/15 02:49:15;;;;;;;8.30;4.40;;;;;;;17.13;18.98;97978.56;5085754;28;20040;-81
2021/01/15 02:51:41;;;;;;;7.53;3.83;;;;;;;17.14;19.02;97984.91;5092907;28;20533;-80
2021/01/15 02:54:08;;;;;;;9.70;4.45;;;;;;;16.90;19.20;97985.56;5067086;28;20060;-81
2021/01/15 02:56:37;;;;;;;9.07;4.50;;;;;;;17.34;18.96;97980.59;5088368;28;20038;-81
2021/01/15 02:59:07;;;;;;;10.70;4.95;;;;;;;17.54;18.71;97995.78;5070845;28;20032;-81
2021/01/15 03:01:54;;;;;;;9.75;5.07;;;;;;;16.97;19.42;98000.28;5088776;28;20081;-80
2021/01/15 03:04:56;;;;;;;9.57;4.38;;;;;;;17.52;18.80;97997.38;5079604;28;20039;-81
2021/01/15 03:07:23;;;;;;;;;;;;;;;18.10;18.11;98000.66;5088639;28;20036;-81
2021/01/15 03:09:53;;;;;;;7.05;3.67;;;;;;;17.59;18.71;98005.72;5090886;28;20363;-81
2021/01/15 03:12:21;;;;;;;8.70;4.78;;;;;;;17.54;18.70;97995.00;5085248;28;20027;-80
2021/01/15 03:14:47;;;;;;;9.45;4.78;;;;;;;17.09;19.23;98005.47;5087852;28;20032;-80
2021/01/15 03:17:17;;;;;;;8.65;4.13;;;;;;;16.94;19.37;98005.81;5087264;28;20476;-80
2021/01/15 03:19:43;;;;;;;9.38;4.22;;;;;;;17.46;19.03;97998.88;5083516;28;20463;-80
2021/01/15 03:22:18;;;;;;;14.57;4.68;;;;;;;16.20;20.20;98008.81;5089213;28;20123;-80
2021/01/15 03:24:59;;;;;;;10.02;4.47;;;;;;;16.93;19.43;98005.00;5068130;28;20230;-81
2021/01/15 03:27:43;;;;;;;10.70;5.22;;;;;;;17.13;19.21;98000.75;5089775;28;20491;-81
2021/01/15 03:30:12;;;;;;;12.00;4.82;;;;;;;16.65;19.60;97996.53;5088595;28;20483;-81
2021/01/15 03:32:39;;;;;;;11.05;5.60;;;;;;;16.15;20.43;98009.16;5100159;28;20373;-81
2021/01/15 03:35:06;;;;;;;11.75;5.35;;;;;;;15.82;20.76;98006.50;5087023;28;20032;-81
2021/01/15 03:37:34;;;;;;;14.10;6.07;;;;;;;15.45;21.10;98009.25;5080772;28;20032;-81
2021/01/15 03:40:01;;;;;;;11.93;5.60;;;;;;;16.48;19.99;98006.28;5090395;28;20465;-81
2021/01/15 03:42:27;;;;;;;10.98;5.40;;;;;;;16.65;20.03;97992.94;5089674;28;20040;-81
2021/01/15 03:44:53;;;;;;;10.90;4.55;;;;;;;16.73;19.70;97995.41;5090475;28;20050;-81
2021/01/15 03:47:19;;;;;;;11.75;6.05;;;;;;;17.14;19.52;97987.69;5087281;28;20043;-81
2021/01/15 03:49:45;;;;;;;10.48;5.32;;;;;;;16.24;20.08;97995.00;5089025;28;20047;-81
2021/01/15 03:52:11;;;;;;;7.90;4.32;;;;;;;15.95;20.77;97995.94;5088201;28;20036;-81
2021/01/15 03:54:38;;;;;;;10.45;5.10;;;;;;;16.22;20.47;98002.91;5086961;28;20448;-81
2021/01/15 03:57:04;;;;;;;10.05;5.13;;;;;;;16.51;20.18;97994.47;5089572;28;20051;-81
2021/01/15 03:59:30;;;;;;;11.55;5.15;;;;;;;16.37;20.41;98001.81;5087457;28;20054;-81
2021/01/15 04:01:57;;;;;;;9.38;4.05;;;;;;;15.74;21.06;97999.28;5089299;28;20425;-81
2021/01/15 04:04:23;;;;;;;9.82;5.38;;;;;;;16.13;20.81;97999.66;5088241;28;20032;-81
2021/01/15 04:06:49;;;;;;;11.63;7.22;;;;;;;15.70;21.16;97999.28;5089917;28;20067;-81
2021/01/15 04:09:15;;;;;;;11.70;5.47;;;;;;;15.44;21.45;97991.06;5085845;28;20522;-81
2021/01/15 04:11:41;;;;;;;10.65;5.10;;;;;;;15.40;21.49;97990.22;5088134;28;20028;-81
2021/01/15 04:14:07;;;;;;;10.45;5.60;;;;;;;15.22;21.43;97991.97;5089151;28;20032;-81
2021/01/15 04:16:33;;;;;;;12.95;6.03;;;;;;;16.20;20.75;97988.63;5087770;28;20055;-81
2021/01/15 04:18:59;;;;;;;11.60;5.53;;;;;;;16.12;20.87;97996.09;5088249;28;20032;-81
2021/01/15 04:21:25;;;;;;;11.90;5.95;;;;;;;15.33;21.77;97989.34;5088949;28;20036;-81
2021/01/15 04:23:51;;;;;;;13.90;7.00;;;;;;;16.42;20.51;97993.16;5087270;28;20032;-81
2021/01/15 04:26:18;;;;;;;10.18;5.20;;;;;;;16.27;20.58;97995.03;5085398;28;20845;-82
2021/01/15 04:28:46;;;;;;;10.05;5.10;;;;;;;17.31;19.54;97983.38;5084210;28;20037;-81
2021/01/15 04:31:16;;;;;;;11.55;5.47;;;;;;;17.24;19.63;97986.94;5083181;28;20107;-81
2021/01/15 04:33:42;;;;;;;14.15;6.10;;;;;;;17.18;19.63;97991.25;5088439;28;20110;-81
2021/01/15 04:36:11;;;;;;;19.35;8.00;;;;;;;17.16;19.65;97996.41;5093080;28;20491;-81
2021/01/15 04:38:38;;;;;;;13.90;5.57;;;;;;;18.11;18.79;97988.34;5092141;28;20042;-81
2021/01/15 04:41:05;;;;;;;15.10;7.32;;;;;;;17.30;19.43;97990.91;5087458;28;20044;-81
2021/01/15 04:43:34;;;;;;;11.95;6.20;;;;;;;17.89;18.97;97981.19;5093877;28;20032;-81
2021/01/15 04:46:03;;;;;;;17.10;7.10;;;;;;;17.36;19.53;97983.81;5086310;28;20028;-81
2021/01/15 04:48:32;;;;;;;11.52;5.47;;;;;;;17.07;19.81;97993.19;5093628;28;20027;-80
2021/01/15 04:50:59;;;;;;;12.07;6.22;;;;;;;16.49;20.48;97985.72;5090732;28;20118;-81
2021/01/15 04:53:27;;;;;;;15.85;7.57;;;;;;;16.83;20.28;97986.31;5091298;28;20032;-81
2021/01/15 04:55:59;;;;;;;16.08;7.40;;;;;;;16.49;20.62;97993.22;5079586;28;20474;-81
2021/01/15 04:58:32;;;;;;;14.77;7.82;;;;;;;16.96;20.13;97978.47;5090875;28;20035;-81
2021/01/15 05:00:58;;;;;;;16.75;7.43;;;;;;;15.87;21.27;97982.03;5092474;28;20512;-81
2021/01/15 05:03:27;;;;;;;14.32;6.82;;;;;;;16.55;20.56;97983.38;5073731;28;20036;-81
2021/01/15 05:05:59;;;;;;;16.83;7.38;;;;;;;16.03;20.90;97989.28;5089672;28;20046;-80
2021/01/15 05:08:28;;;;;;;15.25;7.72;;;;;;;16.50;20.61;97983.72;5089133;28;20028;-80
2021/01/15 05:10:55;;;;;;;16.38;8.13;;;;;;;16.71;20.36;97981.09;5091027;28;20036;-81
2021/01/15 05:13:21;;;;;;;16.33;7.38;;;;;;;16.90;20.22;97988.34;5091165;28;20476;-81
2021/01/15 05:15:49;;;;;;;16.50;8.70;;;;;;;16.19;20.89;97990.63;5083636;28;20033;-80
2021/01/15 05:18:17;;;;;;;14.20;7.15;;;;;;;16.24;21.03;97987.47;5092863;28;20538;-81
2021/01/15 05:20:44;;;;;;;18.83;8.13;;;;;;;15.52;21.72;97992.72;5091534;28;20036;-81
2021/01/15 05:23:11;;;;;;;20.45;8.48;;;;;;;15.38;22.11;97997.31;5088359;28;20440;-81
2021/01/15 05:25:47;;;;;;;16.77;8.60;;;;;;;14.73;22.55;97989.34;5086849;28;20075;-80
2021/01/15 05:28:18;;;;;;;17.98;9.82;;;;;;;14.98;22.51;97987.72;5090839;28;20024;-80
2021/01/15 05:30:44;;;;;;;19.70;8.57;;;;;;;15.48;22.10;97991.91;5087632;28;20652;-80
2021/01/15 05:33:13;;;;;;;15.55;7.55;;;;;;;14.90;22.67;97994.34;5092670;28;20475;-80
2021/01/15 05:35:45;;;;;;;19.02;8.57;;;;;;;15.36;22.37;97997.66;5086948;28;20040;-81
2021/01/15 05:38:16;;;;;;;24.58;9.48;;;;;;;16.07;21.51;97987.34;5090940;28;20123;-80
2021/01/15 05:40:47;;;;;;;15.45;7.35;;;;;;;16.21;21.19;97982.72;5091717;28;20068;-81
2021/01/15 05:43:30;;;;;;;17.25;8.13;;;;;;;16.66;20.73;97983.47;5091684;28;20107;-81
2021/01/15 05:46:18;;;;;;;20.77;9.80;;;;;;;16.50;20.52;97981.72;5086364;28;20036;-81
2021/01/15 05:48:48;;;;;;;20.38;9.30;;;;;;;16.40;20.71;97990.00;5091329;28;20028;-80
2021/01/15 05:51:30;;;;;;;21.08;9.20;;;;;;;15.37;21.75;97990.16;5090806;28;20488;-81
2021/01/15 05:54:01;;;;;;;18.40;8.88;;;;;;;16.09;21.22;97991.31;5084651;28;20049;-81
2021/01/15 05:56:46;;;;;;;25.95;10.73;;;;;;;15.74;21.52;97991.78;5080679;28;20986;-80
2021/01/15 05:59:13;;;;;;;20.67;9.35;;;;;;;14.92;22.18;97980.94;5089289;28;20032;-81
2021/01/15 06:01:50;;;;;;;17.75;8.85;;;;;;;14.94;22.67;97997.94;5090567;28;20039;-81
2021/01/15 06:04:29;;;;;;;20.92;10.02;;;;;;;14.98;22.48;98000.75;5098624;28;20035;-81
2021/01/15 06:06:56;;;;;;;22.98;11.27;;;;;;;14.35;23.00;97995.88;5091873;28;20051;-81
2021/01/15 06:09:22;;;;;;;21.08;9.63;;;;;;;15.31;22.04;97992.47;5087378;28;20050;-79
2021/01/15 06:11:50;;;;;;;22.98;10.80;;;;;;;15.07;22.57;97998.50;5089997;28;20032;-80
2021/01/15 06:14:26;;;;;;;20.48;9.32;;;;;;;15.04;22.39;98002.00;5091673;28;20032;-79
2021/01/15 06:17:07;;;;;;;20.67;9.75;;;;;;;14.60;23.34;97993.50;5086207;28;20032;-80
2021/01/15 06:19:43;;;;;;;19.17;8.88;;;;;;;15.98;21.86;98014.56;5085087;28;20495;-80
2021/01/15 06:22:36;;;;;;;23.95;9.52;;;;;;;15.36;22.38;98011.50;5082558;28;20032;-78
2021/01/15 06:25:08;;;;;;;23.15;10.13;;;;;;;15.65;21.96;98023.72;5081337;28;20036;-79
2021/01/15 06:27:42;;;;;;;16.42;7.45;;;;;;;14.80;22.90;98022.63;5089091;28;20036;-82
2021/01/15 06:30:25;;;;;;;16.60;8.60;;;;;;;14.90;22.95;98032.22;5073689;28;20372;-79
2021/01/15 06:32:52;;;;;;;26.45;11.20;;;;;;;13.68;24.26;98043.59;5088632;28;20050;-80
2021/01/15 06:35:29;;;;;;;26.42;12.82;;;;;;;9.93;30.27;98070.50;5093267;28;20032;-79
2021/01/15 06:38:02;;;;;;;15.05;8.27;;;;;;;8.27;32.88;98071.72;5087757;28;20102;-79
2021/01/15 06:40:39;;;;;;;20.45;8.98;;;;;;;7.70;33.57;98092.31;5088433;28;20044;-80
2021/01/15 06:43:08;;;;;;;16.35;7.43;;;;;;;9.65;30.11;98075.00;5079206;28;20028;-82
2021/01/15 06:45:45;;;;;;;12.30;6.60;;;;;;;11.38;27.50;98083.28;5078122;28;20514;-79
2021/01/15 06:48:12;;;;;;;20.73;9.07;;;;;;;10.30;27.92;98083.13;5086126;28;20081;-79
2021/01/15 06:50:46;;;;;;;12.63;6.95;;;;;;;8.84;30.32;98099.38;5090825;28;20429;-79
2021/01/15 06:53:33;;;;;;;14.50;7.82;;;;;;;9.81;29.37;98106.09;5088716;28;20032;-79
2021/01/15 06:56:01;;;;;;;14.98;7.45;;;;;;;11.56;26.40;98115.63;5082741;28;20581;-79
2021/01/15 06:58:37;;;;;;;14.88;7.53;;;;;;;10.35;28.06;98117.78;5089499;28;20020;-79
2021/01/15 07:01:16;;;;;;;16.80;8.07;;;;;;;10.76;27.13;98119.50;5088677;28;20111;-79
2021/01/15 07:04:18;;;;;;;17.83;8.45;;;;;;;9.41;29.16;98114.06;5064622;28;20024;-79
2021/01/15 07:07:15;;;;;;;14.90;7.18;;;;;;;8.28;30.81;98125.28;5090931;28;20455;-79
2021/01/15 07:09:44;;;;;;;19.35;8.27;;;;;;;7.06;33.25;98137.81;5077774;28;20035;-79
2021/01/15 07:12:18;;;;;;;15.32;8.35;;;;;;;7.42;33.05;98147.28;5081009;28;20401;-79
2021/01/15 07:14:48;;;;;;;17.00;7.82;;;;;;;7.80;31.97;98143.88;5089786;28;20488;-79
2021/01/15 07:17:27;;;;;;;14.02;7.97;;;;;;;8.60;30.57;98132.03;5086572;28;20036;-80
2021/01/15 07:20:06;;;;;;;14.82;7.65;;;;;;;8.81;29.80;98138.34;5082383;28;20123;-79
2021/01/15 07:22:45;;;;;;;17.42;7.85;;;;;;;8.10;31.35;98143.63;5083793;28;20097;-80
2021/01/15 07:25:13;;;;;;;16.27;7.65;;;;;;;9.21;29.43;98138.72;5087080;28;20354;-80
2021/01/15 07:27:40;;;;;;;14.70;6.65;;;;;;;9.26;29.27;98144.00;5088706;28;20112;-80
2021/01/15 07:30:12;;;;;;;13.23;7.07;;;;;;;9.12;29.83;98148.94;5087999;28;20064;-81
2021/01/15 07:32:40;;;;;;;12.13;5.85;;;;;;;12.31;25.21;98143.22;5088072;28;20527;-80
2021/01/15 07:35:12;;;;;;;18.23;7.43;;;;;;;10.82;26.26;98151.06;5088243;28;20467;-81
2021/01/15 07:37:38;;;;;;;14.48;7.35;;;;;;;12.70;24.50;98149.69;5090530;28;20043;-80
2021/01/15 07:40:09;;;;;;;14.57;7.68;;;;;;;10.49;26.47;98156.66;5086787;28;20028;-80
2021/01/15 07:42:52;;;;;;;17.13;7.85;;;;;;;10.85;26.76;98156.66;5083645;28;20032;-79
2021/01/15 07:45:25;;;;;;;14.52;7.13;;;;;;;11.67;25.42;98163.50;5067306;28;20757;-80
2021/01/15 07:48:04;;;;;;;16.25;7.18;;;;;;;13.03;23.61;98166.66;5090807;28;20531;-80
2021/01/15 07:50:44;;;;;;;14.75;6.47;;;;;;;13.11;22.91;98161.00;5082509;28;20397;-80
2021/01/15 07:53:13;;;;;;;15.48;7.57;;;;;;;11.89;24.78;98169.59;5079741;28;20032;-80
2021/01/15 07:55:59;;;;;;;15.57;7.13;;;;;;;12.85;23.60;98184.72;5085721;28;20416;-80
2021/01/15 07:58:46;;;;;;;16.58;7.80;;;;;;;11.62;24.48;98193.94;5092904;28;20061;-79
2021/01/15 08:01:22;;;;;;;21.77;8.70;;;;;;;11.98;24.57;98201.31;5090966;28;20043;-80
2021/01/15 08:03:54;;;;;;;19.85;9.65;;;;;;;11.29;25.14;98207.09;5082186;28;20686;-80
2021/01/15 08:06:21;;;;;;;16.48;8.23;;;;;;;9.12;27.63;98215.47;5084911;28;20537;-78
2021/01/15 08:09:03;;;;;;;15.05;8.32;;;;;;;8.54;29.47;98226.38;5092928;28;20488;-78
2021/01/15 08:11:31;;;;;;;13.05;6.82;;;;;;;8.50;29.24;98228.16;5096144;28;20043;-80
2021/01/15 08:14:17;;;;;;;13.65;5.82;;;;;;;9.82;26.57;98222.03;5092012;28;20639;-80
2021/01/15 08:16:45;;;;;;;13.75;6.63;;;;;;;10.35;25.79;98214.63;5091123;28;20040;-79
2021/01/15 08:19:13;;;;;;;12.95;6.78;;;;;;;9.10;27.36;98238.84;5091300;28;20058;-80
2021/01/15 08:21:46;;;;;;;9.63;5.35;;;;;;;12.62;23.01;98231.38;5090142;28;20028;-80
2021/01/15 08:24:18;;;;;;;11.25;5.47;;;;;;;13.97;20.76;98229.84;5085378;28;20068;-80
2021/01/15 08:26:50;;;;;;;13.23;6.72;;;;;;;12.92;21.53;98240.00;5092133;28;20035;-80
2021/01/15 08:29:18;;;;;;;13.35;5.88;;;;;;;10.96;23.82;98236.66;5073275;28;20044;-80
2021/01/15 08:31:48;;;;;;;10.00;5.32;;;;;;;8.53;26.68;98249.38;5104397;28;20032;-80
2021/01/15 08:34:19;;;;;;;13.40;6.22;;;;;;;9.13;26.86;98238.16;5090746;28;20036;-80
2021/01/15 08:36:54;;;;;;;9.23;4.00;;;;;;;9.05;26.94;98246.09;5093766;28;20099;-80
2021/01/15 08:39:21;;;;;;;11.10;5.57;;;;;;;9.39;26.92;98247.03;5081576;28;20079;-81
2021/01/15 08:42:07;;;;;;;11.52;4.95;;;;;;;9.19;26.08;98262.31;5084797;28;20036;-80
2021/01/15 08:44:34;;;;;;;8.80;4.68;;;;;;;9.47;26.19;98257.16;5093084;28;20035;-80
2021/01/15 08:47:04;;;;;;;10.15;5.07;;;;;;;7.80;27.96;98264.09;5093106;28;20545;-80
2021/01/15 08:49:31;;;;;;;9.27;4.72;;;;;;;8.09;28.21;98265.06;5088475;28;20032;-80
2021/01/15 08:52:00;;;;;;;7.30;3.58;;;;;;;9.52;25.57;98263.22;5067434;28;20131;-80
2021/01/15 08:54:29;;;;;;;7.47;3.60;;;;;;;11.92;22.40;98266.00;5088614;28;20024;-79
2021/01/15 08:57:00;;;;;;;8.90;4.03;;;;;;;10.74;24.35;98275.50;5094591;28;20488;-80
2021/01/15 08:59:28;;;;;;;13.32;5.90;;;;;;;10.39;23.73;98277.84;5070475;28;20059;-80
2021/01/15 09:01:59;;;;;;;7.40;4.00;;;;;;;9.11;26.32;98290.53;5091657;28;20031;-80
2021/01/15 09:04:28;;;;;;;9.18;4.93;;;;;;;10.00;25.09;98290.13;5088266;28;20054;-79
2021/01/15 09:06:55;;;;;;;10.05;5.22;;;;;;;11.26;23.44;98283.94;5090683;28;20058;-80
2021/01/15 09:09:23;;;;;;;8.65;4.88;;;;;;;10.67;24.37;98297.25;5090918;28;20048;-80
2021/01/15 09:11:51;;;;;;;10.45;5.45;;;;;;;10.12;24.72;98303.13;5084568;28;20057;-81
2021/01/15 09:14:27;;;;;;;10.32;4.72;;;;;;;9.71;25.17;98298.38;5088400;28;20123;-80
2021/01/15 09:16:54;;;;;;;7.53;4.32;;;;;;;10.02;25.25;98298.00;5073180;28;20399;-79
2021/01/15 09:19:21;;;;;;;11.77;4.72;;;;;;;9.57;25.02;98311.53;5091065;28;20074;-80
2021/01/15 09:21:47;;;;;;;7.72;4.57;;;;;;;9.53;25.43;98307.88;5092647;28;20399;-80
2021/01/15 09:24:14;;;;;;;8.35;4.20;;;;;;;8.88;26.42;98314.63;5092149;28;20032;-81
2021/01/15 09:26:41;;;;;;;7.72;3.45;;;;;;;11.31;23.02;98317.47;5091580;28;20020;-80
2021/01/15 09:29:07;;;;;;;8.85;4.20;;;;;;;10.87;23.19;98310.13;5090032;28;20156;-80
2021/01/15 09:31:33;;;;;;;9.38;3.78;;;;;;;10.55;23.24;98314.47;5084887;28;20032;-82
2021/01/15 09:34:00;;;;;;;8.38;4.28;;;;;;;10.79;23.00;98311.81;5091787;28;20036;-81
2021/01/15 09:36:27;;;;;;;9.02;4.13;;;;;;;11.17;22.75;98324.44;5091345;28;20157;-81
2021/01/15 09:38:55;;;;;;;4.80;2.67;;;;;;;13.85;19.61;98314.38;5088332;28;20032;-80
2021/01/15 09:41:22;;;;;;;7.65;4.20;;;;;;;14.09;18.84;98307.78;5087261;28;20625;-80
2021/01/15 09:43:53;;;;;;;7.00;3.42;;;;;;;15.36;17.94;98317.72;5088289;28;20104;-80
2021/01/15 09:46:24;;;;;;;4.85;3.17;;;;;;;16.23;17.53;98311.97;5085706;28;20028;-80
2021/01/15 09:48:52;;;;;;;5.00;3.05;;;;;;;15.30;18.46;98310.91;5099577;28;20499;-79
2021/01/15 09:51:22;;;;;;;9.00;4.68;;;;;;;14.33;19.32;98323.28;5093102;28;20020;-80
2021/01/15 09:53:48;;;;;;;9.63;4.75;;;;;;;13.86;20.07;98326.97;5071382;28;20020;-80
2021/01/15 09:56:29;;;;;;;10.02;4.53;;;;;;;13.89;19.85;98328.22;5090945;28;20035;-80
2021/01/15 09:58:58;;;;;;;8.40;3.90;;;;;;;12.86;20.55;98324.09;5082269;28;20439;-79
2021/01/15 10:01:26;;;;;;;7.55;3.88;;;;;;;14.92;18.89;98320.94;5073452;28;20035;-79
2021/01/15 10:04:19;;;;;;;6.05;3.45;;;;;;;14.86;17.50;98318.84;5092248;28;20060;-79
2021/01/15 10:06:46;;;;;;;7.47;3.72;;;;;;;15.83;17.45;98316.16;5089716;28;20391;-79
2021/01/15 10:09:14;;;;;;;17.42;7.72;;;;;;;15.84;17.18;98320.53;5090294;28;20040;-79
2021/01/15 10:11:42;;;;;;;10.10;4.25;;;;;;;16.18;16.64;98329.72;5091148;28;20434;-80
2021/01/15 10:14:13;;;;;;;8.10;4.10;;;;;;;15.39;17.32;98315.03;5089831;28;20024;-80
2021/01/15 10:16:40;;;;;;;;;;;;;;;16.67;15.96;98318.47;5090897;28;20523;-80
2021/01/15 10:19:06;;;;;;;6.32;3.70;;;;;;;17.23;15.42;98299.66;5086977;28;19912;-79
2021/01/15 10:21:32;;;;;;;7.50;3.55;;;;;;;17.91;15.96;98314.88;5072708;28;20028;-79
2021/01/15 10:24:02;;;;;;;5.15;2.53;;;;;;;19.04;15.21;98313.41;5087742;28;20035;-80
2021/01/15 10:26:31;;;;;;;9.10;4.05;;;;;;;19.76;14.45;98304.75;5093748;28;20043;-80
2021/01/15 10:28:59;;;;;;;8.32;3.95;;;;;;;20.28;14.26;98314.19;5086381;28;20031;-82
2021/01/15 10:31:49;;;;;;;10.05;3.83;;;;;;;20.56;13.74;98304.97;5090626;28;20032;-80
2021/01/15 10:34:15;;;;;;;7.95;4.13;;;;;;;20.94;13.90;98305.94;5087643;28;20440;-82
2021/01/15 10:36:42;;;;;;;6.80;3.85;;;;;;;21.03;13.27;98312.69;5070365;28;20089;-82
2021/01/15 10:39:09;;;;;;;6.22;3.85;;;;;;;20.83;13.72;98299.63;5089567;28;20032;-79
2021/01/15 10:41:38;;;;;;;9.48;4.05;;;;;;;20.60;13.45;98305.75;5076715;28;20043;-79
2021/01/15 10:44:06;;;;;;;9.68;4.75;;;;;;;20.35;13.50;98310.63;5094469;28;20039;-80
2021/01/15 10:46:41;;;;;;;7.22;3.47;;;;;;;20.24;13.47;98309.84;5079510;28;20036;-80
2021/01/15 10:49:14;;;;;;;7.80;3.83;;;;;;;20.39;13.48;98303.84;5088665;28;20511;-80
2021/01/15 10:51:47;;;;;;;5.65;2.90;;;;;;;20.71;13.37;98292.53;5090503;28;20488;-81
2021/01/15 10:54:14;;;;;;;6.80;3.78;;;;;;;21.06;13.45;98288.75;5065637;28;20373;-80
2021/01/15 10:56:45;;;;;;;6.15;3.65;;;;;;;20.93;13.44;98274.47;5090228;28;20050;-80
2021/01/15 10:59:12;;;;;;;;;;;;;;;20.25;12.72;98264.03;5088877;28;20118;-80
2021/01/15 11:01:38;;;;;;;5.68;3.00;;;;;;;20.07;13.47;98264.06;5066645;28;20369;-80
2021/01/15 11:04:09;;;;;;;5.85;2.95;;;;;;;19.84;14.13;98264.50;5090249;28;20059;-80
2021/01/15 11:06:36;;;;;;;6.20;3.03;;;;;;;20.02;13.71;98270.06;5062531;28;20025;-80
2021/01/15 11:09:04;;;;;;;5.65;2.50;;;;;;;20.21;13.59;98249.28;5088953;28;20479;-80
2021/01/15 11:11:31;;;;;;;8.00;3.97;;;;;;;20.37;13.44;98253.25;5088892;28;20032;-80
2021/01/15 11:13:57;;;;;;;4.60;2.45;;;;;;;20.35;13.21;98264.00;5088919;28;20369;-80
2021/01/15 11:16:25;;;;;;;5.68;2.97;;;;;;;20.59;13.62;98256.72;5090802;28;20028;-80
2021/01/15 11:18:54;;;;;;;7.55;3.40;;;;;;;20.49;13.77;98255.56;5080255;28;20033;-80
2021/01/15 11:21:27;;;;;;;6.38;3.17;;;;;;;20.30;13.96;98249.69;5083722;28;20369;-80
2021/01/15 11:23:54;;;;;;;8.13;3.70;;;;;;;20.58;13.82;98241.97;5084454;28;20044;-80
2021/01/15 11:26:24;;;;;;;6.30;3.47;;;;;;;20.68;13.07;98234.75;5085410;28;20028;-80
2021/01/15 11:28:52;;;;;;;5.32;3.30;;;;;;;20.24;13.97;98232.56;5083445;28;20116;-80
2021/01/15 11:31:18;;;;;;;5.40;2.58;;;;;;;19.84;12.99;98228.28;5085496;28;20024;-81
2021/01/15 11:33:44;;;;;;;6.82;3.17;;;;;;;20.19;13.83;98229.38;5091893;28;20068;-80
2021/01/15 11:36:11;;;;;;;4.57;2.78;;;;;;;20.88;13.74;98218.28;5089077;28;20051;-81
2021/01/15 11:38:38;;;;;;;6.63;3.05;;;;;;;20.75;13.85;98211.59;5089662;28;20046;-80
2021/01/15 11:41:05;;;;;;;6.47;3.28;;;;;;;20.23;12.99;98208.69;5083225;28;20078;-80
2021/01/15 11:43:35;;;;;;;4.65;3.03;;;;;;;20.34;13.50;98212.22;5087582;28;20456;-81
2021/01/15 11:46:05;;;;;;;6.75;3.65;;;;;;;20.52;13.18;98210.13;5080018;28;20388;-81